Time;durP1;ratioP1;P1;durP2;ratioP2;P2;SDS_P1;SDS_P2;PMS_P1;PMS_P2;Temp;Humidity;BMP_temperature;BMP_pressure;BME280_temperature;BME280_humidity;BME280_pressure;Samples;Min_cycle;Max_cycle;Signal;HPM_P1;HPM_P2
2021/07/01 00:00:24;;;;;;;0.00;0.00;;;;;;;;;;5057239;28;20040;-63
2021/07/01 00:02:49;;;;;;;0.00;0.00;;;;;;;;;;5052728;28;20033;-62
2021/07/01 00:05:16;;;;;;;0.00;0.00;;;;;;;;;;5065511;28;20040;-63
2021/07/01 00:07:42;;;;;;;0.00;0.00;;;;;;;;;;5057357;28;20477;-63
2021/07/01 00:10:17;;;;;;;0.00;0.00;;;;;;;;;;5052081;28;20033;-63
2021/07/01 00:12:42;;;;;;;0.00;0.00;;;;;;;;;;5060796;28;20114;-62
2021/07/01 00:15:09;;;;;;;0.00;0.00;;;;;;;;;;5046460;28;20110;-63
2021/07/01 00:17:35;;;;;;;0.00;0.00;;;;;;;;;;5056900;28;20444;-63
2021/07/01 00:20:03;;;;;;;0.00;0.00;;;;;;;;;;5057594;28;20040;-62
2021/07/01 00:22:28;;;;;;;0.00;0.00;;;;;;;;;;5049906;28;20500;-62
2021/07/01 00:24:56;;;;;;;0.00;0.00;;;;;;;;;;5047634;28;20033;-62
2021/07/01 00:27:22;;;;;;;0.00;0.00;;;;;;;;;;5049707;28;20051;-64
2021/07/01 00:29:47;;;;;;;0.00;0.00;;;;;;;;;;5060214;28;20141;-65
2021/07/01 00:32:13;;;;;;;0.00;0.00;;;;;;;;;;5066510;28;20047;-67
2021/07/01 00:34:38;;;;;;;0.00;0.00;;;;;;;;;;5066196;28;20036;-63
2021/07/01 00:37:04;;;;;;;0.00;0.00;;;;;;;;;;5038316;28;20602;-62
2021/07/01 00:39:30;;;;;;;0.00;0.00;;;;;;;;;;5053449;28;20040;-64
2021/07/01 00:41:56;;;;;;;0.00;0.00;;;;;;;;;;5029772;28;20037;-63
2021/07/01 00:44:21;;;;;;;0.00;0.00;;;;;;;;;;5045358;28;20040;-65
2021/07/01 00:46:47;;;;;;;0.00;0.00;;;;;;;;;;5063453;28;20028;-64
2021/07/01 00:49:12;;;;;;;0.00;0.00;;;;;;;;;;5047423;28;20040;-62
2021/07/01 00:51:39;;;;;;;0.00;0.00;;;;;;;;;;5057390;28;20044;-62
2021/07/01 00:54:06;;;;;;;0.00;0.00;;;;;;;;;;5046708;28;20647;-61
2021/07/01 00:56:37;;;;;;;0.00;0.00;;;;;;;;;;5047697;28;20124;-63
2021/07/01 00:59:04;;;;;;;0.00;0.00;;;;;;;;;;5037237;28;20482;-61
2021/07/01 01:01:30;;;;;;;0.00;0.00;;;;;;;;;;5057714;28;20523;-63
2021/07/01 01:03:56;;;;;;;0.00;0.00;;;;;;;;;;5060714;28;20033;-63
2021/07/01 01:06:22;;;;;;;0.00;0.00;;;;;;;;;;5042380;28;20409;-64
2021/07/01 01:08:49;;;;;;;0.00;0.00;;;;;;;;;;5041438;28;20143;-62
2021/07/01 01:11:15;;;;;;;0.00;0.00;;;;;;;;;;5032960;28;20123;-62
2021/07/01 01:13:43;;;;;;;0.05;0.00;;;;;;;;;;5052464;28;20060;-63
2021/07/01 01:16:37;;;;;;;0.00;0.00;;;;;;;;;;5045348;28;20420;-64
2021/07/01 01:19:06;;;;;;;0.00;0.00;;;;;;;;;;5052717;28;20099;-62
2021/07/01 01:21:33;;;;;;;0.00;0.00;;;;;;;;;;5045145;28;20044;-62
2021/07/01 01:23:59;;;;;;;0.00;0.00;;;;;;;;;;5061155;28;20040;-63
2021/07/01 01:26:26;;;;;;;0.00;0.00;;;;;;;;;;5026071;28;20057;-63
2021/07/01 01:28:52;;;;;;;0.00;0.00;;;;;;;;;;5057906;28;20082;-64
2021/07/01 01:31:19;;;;;;;0.00;0.00;;;;;;;;;;5059513;28;20484;-61
2021/07/01 01:33:46;;;;;;;0.00;0.00;;;;;;;;;;5059723;28;20044;-62
2021/07/01 01:36:12;;;;;;;0.00;0.00;;;;;;;;;;5045655;28;20787;-64
2021/07/01 01:38:39;;;;;;;0.00;0.00;;;;;;;;;;5051211;28;20032;-66
2021/07/01 01:41:26;;;;;;;0.00;0.00;;;;;;;;;;5048695;28;20115;-61
2021/07/01 01:43:53;;;;;;;0.00;0.00;;;;;;;;;;5064710;28;20041;-62
2021/07/01 01:46:19;;;;;;;0.00;0.00;;;;;;;;;;5052022;28;20037;-62
2021/07/01 01:48:52;;;;;;;0.00;0.00;;;;;;;;;;5057455;28;20037;-62
2021/07/01 01:51:18;;;;;;;0.05;0.00;;;;;;;;;;5058396;28;20044;-62
2021/07/01 01:53:44;;;;;;;0.00;0.00;;;;;;;;;;5063264;28;20051;-62
2021/07/01 01:56:10;;;;;;;0.00;0.00;;;;;;;;;;5061190;28;20040;-62
2021/07/01 01:58:36;;;;;;;0.00;0.00;;;;;;;;;;5049039;28;20086;-62
2021/07/01 02:01:20;;;;;;;0.00;0.00;;;;;;;;;;5049468;28;20029;-63
2021/07/01 02:03:51;;;;;;;0.00;0.00;;;;;;;;;;5038945;28;20033;-60
2021/07/01 02:06:27;;;;;;;0.00;0.00;;;;;;;;;;5031868;28;20033;-61
2021/07/01 02:08:53;;;;;;;0.00;0.00;;;;;;;;;;5050645;28;20047;-64
2021/07/01 02:11:20;;;;;;;0.00;0.00;;;;;;;;;;5047218;28;20047;-62
2021/07/01 02:13:46;;;;;;;0.00;0.00;;;;;;;;;;5041746;28;20060;-62
2021/07/01 02:16:31;;;;;;;0.00;0.00;;;;;;;;;;5052639;28;20052;-63
2021/07/01 02:18:57;;;;;;;0.00;0.00;;;;;;;;;;5047531;28;20485;-63
2021/07/01 02:21:23;;;;;;;0.00;0.00;;;;;;;;;;5048307;28;20072;-61
2021/07/01 02:23:49;;;;;;;0.00;0.00;;;;;;;;;;5048110;28;20063;-63
2021/07/01 02:26:15;;;;;;;0.00;0.00;;;;;;;;;;5055231;28;20039;-61
2021/07/01 02:28:41;;;;;;;0.00;0.00;;;;;;;;;;5049819;28;20583;-61
2021/07/01 02:31:30;;;;;;;0.00;0.00;;;;;;;;;;4999377;28;20141;-61
2021/07/01 02:33:56;;;;;;;0.00;0.00;;;;;;;;;;4984391;28;20120;-62
2021/07/01 02:36:39;;;;;;;0.00;0.00;;;;;;;;;;4982483;28;20053;-63
2021/07/01 02:39:43;;;;;;;0.00;0.00;;;;;;;;;;5001411;28;20044;-61
2021/07/01 02:42:09;;;;;;;0.00;0.00;;;;;;;;;;4981600;28;20054;-63
2021/07/01 02:44:37;;;;;;;0.00;0.00;;;;;;;;;;4984419;28;20084;-63
2021/07/01 02:47:41;;;;;;;0.00;0.00;;;;;;;;;;4944643;28;20504;-63
2021/07/01 02:50:08;;;;;;;0.00;0.00;;;;;;;;;;4943365;28;20126;-62
2021/07/01 02:52:36;;;;;;;0.00;0.00;;;;;;;;;;4945200;29;20055;-61
2021/07/01 02:55:02;;;;;;;0.00;0.00;;;;;;;;;;4942847;28;20427;-62
2021/07/01 02:57:29;;;;;;;0.00;0.00;;;;;;;;;;4951697;28;20046;-62
2021/07/01 02:59:58;;;;;;;0.00;0.00;;;;;;;;;;4946968;28;20102;-61
2021/07/01 03:02:37;;;;;;;0.00;0.00;;;;;;;;;;4942504;29;20740;-63
2021/07/01 03:05:23;;;;;;;0.00;0.00;;;;;;;;;;4944006;28;20135;-64
2021/07/01 03:07:50;;;;;;;0.00;0.00;;;;;;;;;;4942430;28;20160;-61
2021/07/01 03:10:17;;;;;;;0.00;0.00;;;;;;;;;;4953403;28;20552;-60
2021/07/01 03:12:57;;;;;;;0.00;0.00;;;;;;;;;;4950258;28;20511;-61
2021/07/01 03:15:25;;;;;;;0.00;0.00;;;;;;;;;;4961795;28;20057;-62
2021/07/01 03:17:51;;;;;;;0.00;0.00;;;;;;;;;;5000154;28;20441;-61
2021/07/01 03:20:22;;;;;;;0.00;0.00;;;;;;;;;;5059729;28;20044;-60
2021/07/01 03:23:10;;;;;;;0.00;0.00;;;;;;;;;;5058498;28;20427;-61
2021/07/01 03:25:36;;;;;;;0.00;0.00;;;;;;;;;;5055126;28;20060;-60
2021/07/01 03:28:02;;;;;;;0.00;0.00;;;;;;;;;;5053347;28;20047;-62
2021/07/01 03:30:29;;;;;;;0.00;0.00;;;;;;;;;;5049842;28;20051;-60
2021/07/01 03:32:55;;;;;;;0.00;0.00;;;;;;;;;;5040882;28;20045;-62
2021/07/01 03:35:20;;;;;;;0.00;0.00;;;;;;;;;;5057831;28;20072;-62
2021/07/01 03:38:06;;;;;;;0.00;0.00;;;;;;;;;;5057156;28;20053;-61
2021/07/01 03:40:45;;;;;;;0.00;0.00;;;;;;;;;;5064039;28;20025;-63
2021/07/01 03:43:11;;;;;;;0.10;0.00;;;;;;;;;;5048820;28;20059;-60
2021/07/01 03:45:41;;;;;;;0.00;0.00;;;;;;;;;;5047159;28;20136;-60
2021/07/01 03:48:07;;;;;;;0.00;0.00;;;;;;;;;;5047226;28;20079;-62
2021/07/01 03:50:37;;;;;;;0.00;0.00;;;;;;;;;;5045362;28;20045;-62
2021/07/01 03:53:18;;;;;;;0.00;0.00;;;;;;;;;;5046380;28;20826;-61
2021/07/01 03:55:44;;;;;;;0.00;0.00;;;;;;;;;;5050788;28;20049;-62
2021/07/01 03:58:10;;;;;;;0.00;0.00;;;;;;;;;;5038331;28;20496;-62
2021/07/01 04:00:37;;;;;;;0.00;0.00;;;;;;;;;;5067557;28;20097;-61
2021/07/01 04:03:07;;;;;;;0.00;0.00;;;;;;;;;;5064176;28;20044;-61
2021/07/01 04:05:52;;;;;;;0.00;0.00;;;;;;;;;;5065578;28;20032;-61
2021/07/01 04:08:18;;;;;;;0.00;0.00;;;;;;;;;;5067398;28;20204;-72
2021/07/01 04:10:49;;;;;;;0.00;0.00;;;;;;;;;;5039093;28;20041;-73
2021/07/01 04:13:17;;;;;;;0.00;0.00;;;;;;;;;;5023496;28;20155;-74
2021/07/01 04:16:12;;;;;;;0.00;0.00;;;;;;;;;;5000756;28;20094;-74
2021/07/01 04:19:06;;;;;;;0.00;0.00;;;;;;;;;;4942444;28;20058;-75
2021/07/01 04:21:50;;;;;;;0.10;0.00;;;;;;;;;;4942878;29;20129;-74
2021/07/01 04:24:52;;;;;;;0.10;0.00;;;;;;;;;;4893841;29;20039;-72
2021/07/01 04:27:31;;;;;;;0.00;0.00;;;;;;;;;;4887855;29;20504;-70
2021/07/01 04:29:57;;;;;;;0.00;0.00;;;;;;;;;;4906973;29;20044;-69
2021/07/01 04:32:26;;;;;;;0.00;0.00;;;;;;;;;;4891451;29;20071;-73
2021/07/01 04:34:53;;;;;;;0.00;0.00;;;;;;;;;;4907651;29;20088;-74
2021/07/01 04:37:19;;;;;;;0.22;0.00;;;;;;;;;;4907226;29;20108;-69
2021/07/01 04:39:50;;;;;;;0.00;0.00;;;;;;;;;;4890312;29;20044;-71
2021/07/01 04:42:20;;;;;;;0.00;0.00;;;;;;;;;;4906030;29;20052;-73
2021/07/01 04:44:46;;;;;;;0.00;0.00;;;;;;;;;;4904290;29;20040;-76
2021/07/01 04:47:13;;;;;;;0.00;0.00;;;;;;;;;;4905261;29;20043;-74
2021/07/01 04:49:44;;;;;;;0.00;0.00;;;;;;;;;;4891733;29;20509;-72
2021/07/01 04:52:29;;;;;;;0.00;0.00;;;;;;;;;;4914409;29;20048;-69
2021/07/01 04:55:23;;;;;;;0.00;0.00;;;;;;;;;;4900705;29;20477;-72
2021/07/01 04:58:07;;;;;;;0.00;0.00;;;;;;;;;;4925369;28;20042;-81
2021/07/01 05:00:38;;;;;;;0.00;0.00;;;;;;;;;;4934424;28;20591;-72
2021/07/01 05:03:27;;;;;;;0.00;0.00;;;;;;;;;;4938602;29;20043;-75
2021/07/01 05:05:54;;;;;;;0.00;0.00;;;;;;;;;;4893842;29;20156;-74
2021/07/01 05:08:20;;;;;;;0.00;0.00;;;;;;;;;;4900052;29;20088;-73
2021/07/01 05:10:51;;;;;;;0.00;0.00;;;;;;;;;;4915797;29;20031;-79
2021/07/01 05:13:18;;;;;;;0.00;0.00;;;;;;;;;;4927110;29;20074;-75
2021/07/01 05:15:46;;;;;;;0.00;0.00;;;;;;;;;;4914056;29;20043;-70
2021/07/01 05:18:12;;;;;;;0.00;0.00;;;;;;;;;;4916602;29;20054;-70
2021/07/01 05:20:43;;;;;;;0.00;0.00;;;;;;;;;;4912643;29;20464;-64
2021/07/01 05:23:47;;;;;;;0.00;0.00;;;;;;;;;;4891666;29;20124;-65
2021/07/01 05:26:36;;;;;;;0.00;0.00;;;;;;;;;;4887786;29;20051;-64
2021/07/01 05:29:20;;;;;;;0.00;0.00;;;;;;;;;;4886657;29;20702;-63
2021/07/01 05:32:04;;;;;;;0.00;0.00;;;;;;;;;;4881241;29;20201;-64
2021/07/01 05:34:49;;;;;;;0.00;0.00;;;;;;;;;;4872403;29;20049;-67
2021/07/01 05:37:15;;;;;;;0.00;0.00;;;;;;;;;;4887844;29;20071;-66
2021/07/01 05:39:47;;;;;;;0.00;0.00;;;;;;;;;;4885589;29;20068;-64
2021/07/01 05:42:13;;;;;;;0.00;0.00;;;;;;;;;;4901420;29;20244;-65
2021/07/01 05:44:38;;;;;;;0.00;0.00;;;;;;;;;;4883450;29;20075;-63
2021/07/01 05:47:04;;;;;;;0.00;0.00;;;;;;;;;;4885022;29;20104;-65
2021/07/01 05:49:30;;;;;;;0.00;0.00;;;;;;;;;;4886325;29;20045;-69
2021/07/01 05:52:00;;;;;;;0.00;0.00;;;;;;;;;;4887752;29;20025;-63
2021/07/01 05:54:30;;;;;;;0.00;0.00;;;;;;;;;;4916167;29;20046;-68
2021/07/01 05:56:56;;;;;;;0.00;0.00;;;;;;;;;;4929050;29;20122;-64
2021/07/01 05:59:21;;;;;;;0.00;0.00;;;;;;;;;;4921684;29;20129;-61
2021/07/01 06:01:47;;;;;;;0.00;0.00;;;;;;;;;;4940233;29;20039;-62
2021/07/01 06:04:14;;;;;;;0.00;0.00;;;;;;;;;;4994400;28;20060;-71
2021/07/01 06:06:59;;;;;;;0.00;0.00;;;;;;;;;;5044128;28;20048;-67
2021/07/01 06:09:30;;;;;;;0.00;0.00;;;;;;;;;;5048887;28;20029;-68
2021/07/01 06:11:56;;;;;;;0.00;0.00;;;;;;;;;;5046611;28;20033;-67
2021/07/01 06:14:23;;;;;;;0.00;0.00;;;;;;;;;;5053572;28;20114;-63
2021/07/01 06:16:50;;;;;;;0.00;0.00;;;;;;;;;;5035406;28;20080;-66
2021/07/01 06:19:17;;;;;;;0.00;0.00;;;;;;;;;;5024171;28;20033;-63
2021/07/01 06:21:42;;;;;;;0.00;0.00;;;;;;;;;;5060949;28;20064;-66
2021/07/01 06:24:11;;;;;;;0.00;0.00;;;;;;;;;;5044019;28;20068;-65
2021/07/01 06:26:39;;;;;;;0.00;0.00;;;;;;;;;;5042106;28;20052;-64
2021/07/01 06:29:05;;;;;;;0.00;0.00;;;;;;;;;;5005720;28;20041;-66
2021/07/01 06:31:31;;;;;;;0.00;0.00;;;;;;;;;;5046751;28;20045;-67
2021/07/01 06:33:56;;;;;;;0.00;0.00;;;;;;;;;;5063576;28;20075;-67
2021/07/01 06:36:23;;;;;;;0.00;0.00;;;;;;;;;;5031378;28;20145;-64
2021/07/01 06:39:07;;;;;;;0.00;0.00;;;;;;;;;;5058840;28;20089;-64
2021/07/01 06:42:03;;;;;;;0.00;0.00;;;;;;;;;;4985584;28;20141;-70
2021/07/01 06:44:47;;;;;;;0.00;0.00;;;;;;;;;;4997210;28;20168;-67
2021/07/01 06:47:32;;;;;;;0.00;0.00;;;;;;;;;;5002836;28;20086;-67
2021/07/01 06:50:17;;;;;;;0.00;0.00;;;;;;;;;;5000042;28;20354;-65
2021/07/01 06:53:02;;;;;;;0.00;0.00;;;;;;;;;;4996049;28;20046;-67
2021/07/01 06:56:06;;;;;;;0.00;0.00;;;;;;;;;;4950293;28;20419;-66
2021/07/01 06:58:39;;;;;;;0.00;0.00;;;;;;;;;;4944755;28;20079;-66
2021/07/01 07:01:05;;;;;;;0.00;0.00;;;;;;;;;;4948343;28;20444;-66
2021/07/01 07:03:31;;;;;;;0.00;0.00;;;;;;;;;;4931269;29;20047;-65
2021/07/01 07:05:59;;;;;;;0.00;0.00;;;;;;;;;;4948443;28;20047;-64
2021/07/01 07:08:26;;;;;;;0.00;0.00;;;;;;;;;;4930107;29;20083;-64
2021/07/01 07:10:52;;;;;;;0.00;0.00;;;;;;;;;;4947168;29;20070;-67
2021/07/01 07:13:19;;;;;;;0.00;0.00;;;;;;;;;;4946264;28;20074;-66
2021/07/01 07:15:45;;;;;;;0.00;0.00;;;;;;;;;;4940619;29;20147;-70
2021/07/01 07:18:25;;;;;;;0.00;0.00;;;;;;;;;;4955622;28;20102;-63
2021/07/01 07:21:14;;;;;;;0.00;0.00;;;;;;;;;;4966668;28;20046;-66
2021/07/01 07:23:40;;;;;;;0.00;0.00;;;;;;;;;;4965878;28;20043;-65
2021/07/01 07:26:19;;;;;;;0.00;0.00;;;;;;;;;;4976037;28;20044;-65
2021/07/01 07:28:50;;;;;;;0.00;0.00;;;;;;;;;;5010823;28;20528;-65
2021/07/01 07:31:22;;;;;;;0.00;0.00;;;;;;;;;;5025604;28;20435;-67
2021/07/01 07:33:48;;;;;;;0.00;0.00;;;;;;;;;;5034848;28;20441;-66
2021/07/01 07:36:18;;;;;;;0.00;0.00;;;;;;;;;;5047059;28;20060;-64
2021/07/01 07:38:44;;;;;;;0.00;0.00;;;;;;;;;;5040082;28;20437;-65
2021/07/01 07:41:13;;;;;;;0.00;0.00;;;;;;;;;;5038291;28;20523;-68
2021/07/01 07:43:39;;;;;;;0.00;0.00;;;;;;;;;;5037169;28;20079;-66
2021/07/01 07:46:05;;;;;;;0.00;0.00;;;;;;;;;;5039677;28;20041;-66
2021/07/01 07:48:31;;;;;;;0.00;0.00;;;;;;;;;;5039173;28;20041;-68
2021/07/01 07:51:02;;;;;;;0.00;0.00;;;;;;;;;;5040980;28;20120;-64
2021/07/01 07:53:32;;;;;;;0.00;0.00;;;;;;;;;;5039195;28;20086;-67
2021/07/01 07:56:06;;;;;;;0.00;0.00;;;;;;;;;;5037630;28;20045;-65
2021/07/01 07:58:33;;;;;;;0.00;0.00;;;;;;;;;;5023194;28;21619;-70
2021/07/01 08:01:00;;;;;;;0.00;0.00;;;;;;;;;;5038876;28;20059;-65
2021/07/01 08:03:31;;;;;;;0.00;0.00;;;;;;;;;;5037692;28;20056;-66
2021/07/01 08:05:58;;;;;;;0.00;0.00;;;;;;;;;;5005895;28;20115;-69
2021/07/01 08:08:25;;;;;;;0.00;0.00;;;;;;;;;;5017334;28;20037;-65
2021/07/01 08:10:51;;;;;;;0.00;0.00;;;;;;;;;;5042761;28;20029;-67
2021/07/01 08:13:20;;;;;;;0.00;0.00;;;;;;;;;;5020543;28;20515;-66
2021/07/01 08:15:45;;;;;;;0.10;0.10;;;;;;;;;;5042790;28;20049;-67
2021/07/01 08:18:19;;;;;;;0.10;0.10;;;;;;;;;;5046678;28;20048;-68
2021/07/01 08:20:44;;;;;;;0.00;0.00;;;;;;;;;;5039734;28;20127;-64
2021/07/01 08:23:10;;;;;;;0.00;0.00;;;;;;;;;;5039613;28;20123;-63
2021/07/01 08:25:36;;;;;;;0.00;0.00;;;;;;;;;;5039465;28;20033;-65
2021/07/01 08:28:01;;;;;;;0.00;0.00;;;;;;;;;;5045341;28;20044;-69
2021/07/01 08:30:29;;;;;;;0.00;0.00;;;;;;;;;;5042996;28;20092;-67
2021/07/01 08:32:57;;;;;;;0.00;0.00;;;;;;;;;;5017727;28;20064;-67
2021/07/01 08:35:26;;;;;;;0.00;0.00;;;;;;;;;;5037913;28;20057;-72
2021/07/01 08:38:05;;;;;;;0.00;0.00;;;;;;;;;;5039764;28;20223;-71
2021/07/01 08:40:32;;;;;;;0.00;0.00;;;;;;;;;;5021596;28;20432;-68
2021/07/01 08:42:59;;;;;;;0.00;0.00;;;;;;;;;;5040287;28;20331;-70
2021/07/01 08:45:28;;;;;;;0.00;0.00;;;;;;;;;;5042486;28;20544;-70
2021/07/01 08:47:59;;;;;;;0.00;0.00;;;;;;;;;;5038603;28;20173;-70
2021/07/01 08:50:28;;;;;;;0.00;0.00;;;;;;;;;;5042695;28;20037;-67
2021/07/01 08:52:57;;;;;;;0.00;0.00;;;;;;;;;;5039259;28;20044;-74
2021/07/01 08:55:25;;;;;;;0.00;0.00;;;;;;;;;;5025675;28;20041;-75
2021/07/01 08:57:53;;;;;;;0.00;0.00;;;;;;;;;;5045500;28;20400;-76
2021/07/01 09:00:19;;;;;;;0.00;0.00;;;;;;;;;;5042795;28;20484;-77
2021/07/01 09:03:03;;;;;;;0.00;0.00;;;;;;;;;;5042617;28;20045;-75
2021/07/01 09:05:30;;;;;;;0.00;0.00;;;;;;;;;;5022879;28;20045;-77
2021/07/01 09:07:58;;;;;;;0.10;0.10;;;;;;;;;;5036855;28;20047;-74
2021/07/01 09:10:24;;;;;;;0.00;0.00;;;;;;;;;;5025708;28;20037;-78
2021/07/01 09:12:54;;;;;;;0.00;0.00;;;;;;;;;;5037194;28;20037;-77
2021/07/01 09:15:20;;;;;;;0.00;0.00;;;;;;;;;;5019746;28;20068;-79
2021/07/01 09:17:49;;;;;;;0.00;0.00;;;;;;;;;;5036852;28;20071;-70
2021/07/01 09:20:24;;;;;;;0.00;0.00;;;;;;;;;;5019872;28;20037;-70
2021/07/01 09:22:56;;;;;;;0.00;0.00;;;;;;;;;;5035851;28;20052;-67
2021/07/01 09:25:23;;;;;;;0.00;0.00;;;;;;;;;;5038711;28;20060;-67
2021/07/01 09:27:51;;;;;;;0.00;0.00;;;;;;;;;;5040335;28;20175;-67
2021/07/01 09:30:17;;;;;;;0.00;0.00;;;;;;;;;;4992478;28;20128;-68
2021/07/01 09:32:45;;;;;;;0.00;0.00;;;;;;;;;;5034273;28;20535;-65
2021/07/01 09:35:12;;;;;;;0.00;0.00;;;;;;;;;;5038939;28;20136;-68
2021/07/01 09:37:39;;;;;;;0.00;0.00;;;;;;;;;;5040579;28;20628;-68
2021/07/01 09:40:06;;;;;;;0.00;0.00;;;;;;;;;;5041508;28;20042;-69
2021/07/01 09:42:35;;;;;;;0.00;0.00;;;;;;;;;;5037177;28;20041;-72
2021/07/01 09:45:04;;;;;;;0.00;0.00;;;;;;;;;;5038157;28;20048;-70
2021/07/01 09:47:31;;;;;;;0.00;0.00;;;;;;;;;;5035516;28;20037;-70
2021/07/01 09:49:59;;;;;;;0.00;0.00;;;;;;;;;;5037754;28;20056;-70
2021/07/01 09:52:27;;;;;;;0.00;0.00;;;;;;;;;;5037404;28;20045;-68
2021/07/01 09:54:55;;;;;;;0.00;0.00;;;;;;;;;;5018913;28;20052;-71
2021/07/01 09:57:28;;;;;;;0.00;0.00;;;;;;;;;;5038712;28;20401;-66
2021/07/01 09:59:55;;;;;;;0.00;0.00;;;;;;;;;;5044798;28;20033;-66
2021/07/01 10:02:22;;;;;;;0.00;0.00;;;;;;;;;;5037065;28;20075;-68
2021/07/01 10:04:48;;;;;;;0.00;0.00;;;;;;;;;;5038353;28;20480;-67
2021/07/01 10:07:16;;;;;;;0.00;0.00;;;;;;;;;;5035305;28;20405;-64
2021/07/01 10:09:41;;;;;;;0.00;0.00;;;;;;;;;;5019660;28;20051;-66
2021/07/01 10:12:18;;;;;;;0.00;0.00;;;;;;;;;;5039893;28;20040;-68
2021/07/01 10:14:46;;;;;;;0.00;0.00;;;;;;;;;;5010876;28;20144;-64
2021/07/01 10:17:13;;;;;;;0.00;0.00;;;;;;;;;;5042533;28;20044;-68
2021/07/01 10:19:39;;;;;;;0.20;0.20;;;;;;;;;;5021366;28;20041;-67
2021/07/01 10:22:06;;;;;;;0.00;0.00;;;;;;;;;;5049520;28;20144;-66
2021/07/01 10:24:35;;;;;;;0.00;0.00;;;;;;;;;;5025481;28;20079;-69
2021/07/01 10:27:02;;;;;;;0.00;0.00;;;;;;;;;;5057248;28;20052;-67
2021/07/01 10:29:37;;;;;;;0.00;0.00;;;;;;;;;;5044989;28;20429;-64
2021/07/01 10:32:09;;;;;;;0.00;0.00;;;;;;;;;;5064091;28;20044;-70
2021/07/01 10:34:48;;;;;;;0.00;0.00;;;;;;;;;;5025848;28;20041;-67
2021/07/01 10:37:24;;;;;;;0.00;0.00;;;;;;;;;;5030799;28;20041;-65
2021/07/01 10:39:50;;;;;;;0.00;0.00;;;;;;;;;;5043362;28;20045;-67
2021/07/01 10:42:17;;;;;;;0.00;0.00;;;;;;;;;;5021809;28;20037;-66
2021/07/01 10:44:44;;;;;;;0.00;0.00;;;;;;;;;;5024764;28;20404;-62
2021/07/01 10:47:24;;;;;;;0.00;0.00;;;;;;;;;;5009294;28;20041;-67
2021/07/01 10:49:50;;;;;;;0.00;0.00;;;;;;;;;;5037439;28;20065;-65
2021/07/01 10:52:15;;;;;;;0.00;0.00;;;;;;;;;;5042657;28;20060;-63
2021/07/01 10:54:57;;;;;;;0.00;0.00;;;;;;;;;;5043396;28;20055;-64
2021/07/01 10:57:28;;;;;;;0.00;0.00;;;;;;;;;;5053784;28;20033;-69
2021/07/01 10:59:56;;;;;;;0.00;0.00;;;;;;;;;;5032255;28;20033;-65
2021/07/01 11:02:29;;;;;;;0.00;0.00;;;;;;;;;;5041755;28;20033;-68
2021/07/01 11:04:57;;;;;;;0.00;0.00;;;;;;;;;;5036217;28;20040;-63
2021/07/01 11:07:23;;;;;;;0.00;0.00;;;;;;;;;;5030882;28;20033;-63
2021/07/01 11:09:52;;;;;;;0.00;0.00;;;;;;;;;;5039058;28;20358;-68
2021/07/01 11:12:24;;;;;;;0.00;0.00;;;;;;;;;;5011268;28;20113;-63
2021/07/01 11:14:52;;;;;;;0.00;0.00;;;;;;;;;;5030835;28;20544;-63
2021/07/01 11:17:27;;;;;;;0.00;0.00;;;;;;;;;;5026486;28;20041;-62
2021/07/01 11:19:54;;;;;;;0.00;0.00;;;;;;;;;;5026562;28;20037;-67
2021/07/01 11:22:20;;;;;;;0.00;0.00;;;;;;;;;;5048528;28;20044;-61
2021/07/01 11:24:46;;;;;;;0.00;0.00;;;;;;;;;;5055274;28;20037;-65
2021/07/01 11:27:21;;;;;;;0.00;0.00;;;;;;;;;;5055703;28;20044;-68
2021/07/01 11:29:47;;;;;;;0.00;0.00;;;;;;;;;;5042112;28;20453;-64
2021/07/01 11:32:21;;;;;;;0.00;0.00;;;;;;;;;;5018462;28;20041;-65
2021/07/01 11:34:48;;;;;;;0.00;0.00;;;;;;;;;;5023476;28;20709;-64
2021/07/01 11:37:15;;;;;;;0.00;0.00;;;;;;;;;;5054555;28;20095;-64
2021/07/01 11:39:45;;;;;;;0.00;0.00;;;;;;;;;;5051437;28;20120;-64
2021/07/01 11:42:12;;;;;;;0.00;0.00;;;;;;;;;;5078064;22;21931;-69
2021/07/01 11:44:41;;;;;;;0.00;0.00;;;;;;;;;;5026706;28;20135;-64
2021/07/01 11:47:08;;;;;;;0.00;0.00;;;;;;;;;;5030019;28;20072;-61
2021/07/01 11:49:34;;;;;;;0.00;0.00;;;;;;;;;;5011182;28;20037;-63
2021/07/01 11:52:00;;;;;;;0.00;0.00;;;;;;;;;;5017940;28;20033;-63
2021/07/01 11:54:27;;;;;;;0.22;0.00;;;;;;;;;;5021310;28;20139;-61
2021/07/01 11:56:54;;;;;;;0.00;0.00;;;;;;;;;;5011893;28;20047;-65
2021/07/01 11:59:20;;;;;;;0.00;0.00;;;;;;;;;;5048369;28;20041;-63
2021/07/01 12:01:46;;;;;;;0.00;0.00;;;;;;;;;;5032427;28;20055;-62
2021/07/01 12:04:12;;;;;;;0.00;0.00;;;;;;;;;;5030013;28;20480;-63
2021/07/01 12:06:44;;;;;;;0.00;0.00;;;;;;;;;;5015120;28;20052;-62
2021/07/01 12:09:11;;;;;;;0.00;0.00;;;;;;;;;;5029915;28;20093;-69
2021/07/01 12:11:55;;;;;;;0.00;0.00;;;;;;;;;;5034020;28;20071;-68
2021/07/01 12:14:31;;;;;;;0.00;0.00;;;;;;;;;;5031947;28;20056;-67
2021/07/01 12:16:57;;;;;;;0.00;0.00;;;;;;;;;;5022937;28;20091;-68
2021/07/01 12:19:43;;;;;;;0.00;0.00;;;;;;;;;;5021529;28;20080;-65
2021/07/01 12:22:08;;;;;;;0.00;0.00;;;;;;;;;;5021920;28;20061;-67
2021/07/01 12:24:34;;;;;;;0.00;0.00;;;;;;;;;;5031477;28;20444;-67
2021/07/01 12:26:59;;;;;;;0.00;0.00;;;;;;;;;;5014588;28;20033;-67
2021/07/01 12:29:45;;;;;;;0.00;0.00;;;;;;;;;;5027049;28;20037;-66
2021/07/01 12:32:24;;;;;;;0.00;0.00;;;;;;;;;;5024227;28;20526;-71
2021/07/01 12:34:49;;;;;;;0.00;0.00;;;;;;;;;;5015539;28;20039;-68
2021/07/01 12:37:15;;;;;;;0.00;0.00;;;;;;;;;;5033753;28;20116;-75
2021/07/01 12:39:41;;;;;;;0.00;0.00;;;;;;;;;;4987576;28;20038;-69
2021/07/01 12:42:07;;;;;;;0.00;0.00;;;;;;;;;;5026881;28;20210;-69
2021/07/01 12:44:34;;;;;;;0.00;0.00;;;;;;;;;;5033906;28;20409;-70
2021/07/01 12:47:00;;;;;;;0.00;0.00;;;;;;;;;;4996739;28;20044;-64
2021/07/01 12:49:32;;;;;;;0.00;0.00;;;;;;;;;;5072299;22;20139;-64
2021/07/01 12:51:58;;;;;;;;;;;;;;;;;;5004709;28;20037;-61
2021/07/01 12:54:24;;;;;;;0.00;0.00;;;;;;;;;;5016716;28;19909;-64
2021/07/01 12:56:56;;;;;;;0.00;0.00;;;;;;;;;;5013691;28;20337;-61
2021/07/01 12:59:24;;;;;;;0.00;0.00;;;;;;;;;;4999254;28;20037;-62
2021/07/01 13:01:50;;;;;;;0.00;0.00;;;;;;;;;;5015932;28;20044;-71
2021/07/01 13:04:24;;;;;;;0.00;0.00;;;;;;;;;;5016467;28;20444;-70
2021/07/01 13:06:50;;;;;;;0.00;0.00;;;;;;;;;;5014434;28;20126;-73
2021/07/01 13:09:33;;;;;;;0.00;0.00;;;;;;;;;;5013929;28;20045;-73
2021/07/01 13:12:01;;;;;;;0.00;0.00;;;;;;;;;;5008003;28;20453;-67
2021/07/01 13:14:28;;;;;;;0.00;0.00;;;;;;;;;;5020017;28;20072;-69
2021/07/01 13:17:04;;;;;;;0.00;0.00;;;;;;;;;;5023493;28;20096;-70
2021/07/01 13:19:30;;;;;;;0.00;0.00;;;;;;;;;;5022075;28;20529;-68
2021/07/01 13:21:56;;;;;;;0.00;0.00;;;;;;;;;;5016971;28;20124;-68
2021/07/01 13:24:22;;;;;;;0.00;0.00;;;;;;;;;;5001705;28;20038;-70
2021/07/01 13:26:51;;;;;;;0.00;0.00;;;;;;;;;;5012603;28;20034;-69
2021/07/01 13:29:36;;;;;;;0.00;0.00;;;;;;;;;;5019833;28;20136;-70
2021/07/01 13:32:02;;;;;;;0.00;0.00;;;;;;;;;;5026237;28;20029;-67
2021/07/01 13:34:31;;;;;;;0.00;0.00;;;;;;;;;;5026818;28;20088;-68
2021/07/01 13:36:57;;;;;;;0.00;0.00;;;;;;;;;;5024825;28;20152;-69
2021/07/01 13:39:27;;;;;;;0.00;0.00;;;;;;;;;;5007895;28;20044;-68
2021/07/01 13:41:53;;;;;;;0.00;0.00;;;;;;;;;;5026084;28;20032;-66
2021/07/01 13:44:18;;;;;;;0.00;0.00;;;;;;;;;;5023483;28;20041;-69
2021/07/01 13:46:44;;;;;;;0.00;0.00;;;;;;;;;;5029709;28;20453;-70
2021/07/01 13:49:10;;;;;;;0.00;0.00;;;;;;;;;;5024985;28;20045;-68
2021/07/01 13:51:35;;;;;;;0.00;0.00;;;;;;;;;;5018558;28;20063;-68
2021/07/01 13:54:11;;;;;;;0.00;0.00;;;;;;;;;;4999675;28;20037;-69
2021/07/01 13:56:40;;;;;;;0.00;0.00;;;;;;;;;;5013978;28;20540;-67
2021/07/01 13:59:07;;;;;;;0.00;0.00;;;;;;;;;;5028401;28;20041;-67
2021/07/01 14:01:33;;;;;;;0.00;0.00;;;;;;;;;;5013707;28;20120;-67
2021/07/01 14:03:59;;;;;;;0.00;0.00;;;;;;;;;;5024548;28;20175;-67
2021/07/01 14:06:24;;;;;;;0.00;0.00;;;;;;;;;;5026534;28;20044;-61
2021/07/01 14:08:50;;;;;;;0.00;0.00;;;;;;;;;;5015430;28;20076;-65
2021/07/01 14:11:19;;;;;;;0.00;0.00;;;;;;;;;;5011752;28;20044;-69
2021/07/01 14:13:47;;;;;;;0.00;0.00;;;;;;;;;;5001697;28;20029;-62
2021/07/01 14:16:14;;;;;;;0.00;0.00;;;;;;;;;;5000462;28;20137;-63
2021/07/01 14:18:41;;;;;;;0.00;0.00;;;;;;;;;;5012011;28;20052;-64
2021/07/01 14:21:08;;;;;;;0.00;0.00;;;;;;;;;;4996601;28;20056;-64
2021/07/01 14:23:34;;;;;;;0.00;0.00;;;;;;;;;;5016415;28;20386;-67
2021/07/01 14:26:17;;;;;;;0.00;0.00;;;;;;;;;;5013184;28;20045;-62
2021/07/01 14:28:43;;;;;;;0.00;0.00;;;;;;;;;;5000344;28;20033;-65
2021/07/01 14:31:10;;;;;;;0.00;0.00;;;;;;;;;;4999210;28;20084;-66
2021/07/01 14:33:38;;;;;;;0.00;0.00;;;;;;;;;;5018351;28;20508;-64
2021/07/01 14:36:05;;;;;;;0.00;0.00;;;;;;;;;;5015449;28;20096;-61
2021/07/01 14:38:37;;;;;;;0.00;0.00;;;;;;;;;;5014775;28;20073;-62
2021/07/01 14:41:08;;;;;;;0.00;0.00;;;;;;;;;;4982398;28;20036;-67
2021/07/01 14:43:40;;;;;;;0.00;0.00;;;;;;;;;;5016010;28;20058;-62
2021/07/01 14:46:13;;;;;;;0.00;0.00;;;;;;;;;;5008952;28;20042;-62
2021/07/01 14:48:39;;;;;;;0.00;0.00;;;;;;;;;;5014779;28;20123;-62
2021/07/01 14:51:23;;;;;;;0.00;0.00;;;;;;;;;;4995396;28;20499;-62
2021/07/01 14:53:49;;;;;;;0.00;0.00;;;;;;;;;;5015616;28;20069;-64
2021/07/01 14:56:35;;;;;;;0.00;0.00;;;;;;;;;;5015781;28;20046;-65
2021/07/01 14:59:00;;;;;;;0.00;0.00;;;;;;;;;;4996203;28;20038;-68
2021/07/01 15:01:26;;;;;;;0.00;0.00;;;;;;;;;;5014509;28;20060;-63